Time;durP1;ratioP1;P1;durP2;ratioP2;P2;SDS_P1;SDS_P2;PMS_P1;PMS_P2;Temp;Humidity;BMP_temperature;BMP_pressure;BME280_temperature;BME280_humidity;BME280_pressure;Samples;Min_cycle;Max_cycle;Signal;HPM_P1;HPM_P2
2023/01/12 00:01:39;;;;;;;51.40;21.83;;;;;;;5.44;nan;101081.03;5004298;28;20030;-68
2023/01/12 00:04:05;;;;;;;43.90;20.80;;;;;;;5.44;nan;101075.81;5006675;28;20057;-67
2023/01/12 00:06:31;;;;;;;49.72;21.52;;;;;;;5.32;nan;101054.50;5003660;28;20039;-68
2023/01/12 00:08:57;;;;;;;46.22;21.92;;;;;;;5.34;nan;101060.38;4989711;28;20064;-68
2023/01/12 00:11:23;;;;;;;51.40;22.25;;;;;;;5.46;nan;101082.47;5002148;28;20021;-69
2023/01/12 00:13:48;;;;;;;46.13;21.60;;;;;;;5.45;nan;101080.03;4997633;28;20044;-68
2023/01/12 00:16:37;;;;;;;44.88;21.50;;;;;;;5.27;nan;101052.41;4988922;28;20029;-68
2023/01/12 00:19:04;;;;;;;44.15;20.95;;;;;;;5.47;nan;101075.44;4997598;28;20040;-69
2023/01/12 00:21:43;;;;;;;46.05;21.30;;;;;;;5.46;nan;101073.81;5002900;28;20053;-68
2023/01/12 00:24:08;;;;;;;39.03;21.05;;;;;;;5.47;nan;101078.88;5002277;28;20034;-69
2023/01/12 00:26:34;;;;;;;48.50;21.83;;;;;;;5.49;nan;101079.50;5005585;28;20514;-69
2023/01/12 00:28:59;;;;;;;42.75;21.05;;;;;;;5.39;nan;101060.66;4999484;28;20483;-68
2023/01/12 00:31:24;;;;;;;44.75;21.90;;;;;;;5.36;nan;101053.13;4984262;28;20030;-69
2023/01/12 00:33:50;;;;;;;44.17;21.35;;;;;;;5.44;nan;101068.78;5000223;28;20087;-69
2023/01/12 00:36:17;;;;;;;40.95;20.80;;;;;;;5.52;nan;101070.50;5006991;28;20026;-68
2023/01/12 00:38:43;;;;;;;40.97;20.60;;;;;;;5.48;nan;101067.44;5009429;28;20049;-68
2023/01/12 00:45:20;;;;;;;38.90;20.10;;;;;;;5.41;nan;101063.91;5002987;28;20026;-68
2023/01/12 00:46:42;;;;;;;37.08;19.15;;;;;;;5.30;nan;101070.34;5009756;28;19967;-69
2023/01/12 00:49:07;;;;;;;40.75;19.83;;;;;;;5.39;nan;101081.53;4992192;28;20057;-68
2023/01/12 00:51:33;;;;;;;45.13;21.20;;;;;;;5.41;nan;101094.41;4991466;28;20072;-68
2023/01/12 00:54:03;;;;;;;46.15;20.25;;;;;;;5.43;nan;101092.44;4993773;28;20026;-68
2023/01/12 00:56:28;;;;;;;43.72;19.88;;;;;;;5.43;nan;101098.47;5012522;28;20116;-69
2023/01/12 00:58:54;;;;;;;36.67;18.75;;;;;;;5.29;nan;101081.78;5009477;28;20121;-68
2023/01/12 01:01:19;;;;;;;42.65;21.10;;;;;;;5.35;nan;101085.47;5008589;28;20053;-68
2023/01/12 01:03:44;;;;;;;50.95;20.15;;;;;;;5.44;nan;101115.78;5003149;28;20432;-69
2023/01/12 01:06:10;;;;;;;40.63;20.00;;;;;;;5.32;nan;101091.88;4983566;28;20057;-67
2023/01/12 01:08:36;;;;;;;40.30;19.13;;;;;;;5.33;nan;101098.69;5012143;28;20029;-70
2023/01/12 01:11:05;;;;;;;37.70;19.85;;;;;;;5.28;nan;101093.19;4991437;28;20026;-68
2023/01/12 01:13:30;;;;;;;38.00;18.57;;;;;;;5.36;nan;101104.56;5006001;28;20045;-68
2023/01/12 01:16:00;;;;;;;39.72;17.90;;;;;;;5.37;nan;101103.59;5006584;28;20597;-68
2023/01/12 01:18:26;;;;;;;34.90;18.50;;;;;;;5.35;nan;101114.22;5004100;28;20087;-68
2023/01/12 01:20:52;;;;;;;38.53;17.95;;;;;;;5.37;nan;101120.06;5004566;28;20014;-69
2023/01/12 01:23:18;;;;;;;33.40;17.30;;;;;;;5.30;nan;101100.84;5003059;28;20026;-68
2023/01/12 01:25:43;;;;;;;36.25;18.20;;;;;;;5.35;nan;101111.59;4990491;28;20112;-69
2023/01/12 01:28:08;;;;;;;37.05;17.80;;;;;;;5.28;nan;101097.59;5002349;28;20109;-68
2023/01/12 01:30:34;;;;;;;35.20;17.58;;;;;;;5.33;nan;101108.34;4991787;28;20053;-68
2023/01/12 01:32:59;;;;;;;34.78;17.80;;;;;;;5.25;nan;101106.59;5000214;28;20030;-68
2023/01/12 01:35:25;;;;;;;34.92;17.50;;;;;;;5.28;nan;101111.47;5009194;28;20032;-68
2023/01/12 01:37:50;;;;;;;35.25;17.05;;;;;;;5.26;nan;101105.59;5005260;28;20037;-67
2023/01/12 01:40:15;;;;;;;39.03;18.13;;;;;;;4.96;nan;101070.72;4989542;28;20022;-70
2023/01/12 01:42:41;;;;;;;35.05;17.08;;;;;;;5.16;nan;101102.41;5008904;28;20030;-69
2023/01/12 01:45:11;;;;;;;35.35;17.33;;;;;;;5.22;nan;101101.72;5004238;28;20618;-69
2023/01/12 01:47:46;;;;;;;31.38;16.35;;;;;;;5.24;nan;101107.59;4988248;28;20467;-69
2023/01/12 01:50:27;;;;;;;37.70;18.08;;;;;;;5.21;nan;101102.69;5001109;28;20029;-69
2023/01/12 01:52:58;;;;;;;33.92;17.10;;;;;;;5.10;nan;101077.81;5002007;28;20117;-69
2023/01/12 01:55:28;;;;;;;38.42;18.15;;;;;;;5.22;nan;101096.50;5005300;28;20028;-68
2023/01/12 01:58:05;;;;;;;35.55;17.88;;;;;;;5.22;nan;101095.66;4987168;28;20026;-69
2023/01/12 02:00:30;;;;;;;37.67;17.38;;;;;;;5.04;nan;101062.00;5001926;28;20022;-69
2023/01/12 02:02:58;;;;;;;38.00;17.70;;;;;;;5.19;nan;101086.38;5006800;28;20069;-69
2023/01/12 02:05:26;;;;;;;34.20;17.17;;;;;;;5.19;nan;101086.38;5004940;28;20030;-69
2023/01/12 02:07:52;;;;;;;39.88;17.88;;;;;;;4.92;nan;101055.56;5004245;28;20050;-68
2023/01/12 02:10:18;;;;;;;37.28;17.70;;;;;;;5.15;nan;101084.28;5007421;28;20116;-69
2023/01/12 02:18:32;;;;;;;37.67;19.40;;;;;;;5.06;nan;101075.72;5004762;28;20096;-70
2023/01/12 02:21:32;;;;;;;41.30;20.45;;;;;;;5.03;nan;101086.50;5003061;28;20487;-69
2023/01/12 02:23:57;;;;;;;41.40;19.95;;;;;;;5.01;nan;101083.25;5004817;28;20642;-69
2023/01/12 02:26:23;;;;;;;42.87;20.30;;;;;;;5.00;nan;101085.03;5007287;28;20034;-69
2023/01/12 02:29:25;;;;;;;40.13;20.00;;;;;;;4.99;nan;101074.78;5005626;28;20385;-69
2023/01/12 02:31:55;;;;;;;45.38;20.35;;;;;;;4.99;nan;101074.78;5000727;28;20022;-69
2023/01/12 02:34:58;;;;;;;42.28;21.42;;;;;;;5.00;nan;101077.19;5001078;28;20045;-68
2023/01/12 02:37:41;;;;;;;41.72;20.92;;;;;;;5.00;nan;101074.56;5001697;28;20026;-70
2023/01/12 02:40:17;;;;;;;42.63;21.40;;;;;;;4.92;nan;101060.78;4991958;28;20025;-67
2023/01/12 02:43:05;;;;;;;41.30;21.25;;;;;;;5.01;nan;101067.59;5002778;28;20045;-69
2023/01/12 02:45:49;;;;;;;38.60;20.25;;;;;;;4.92;nan;101061.59;5005950;28;20032;-69
2023/01/12 02:48:24;;;;;;;42.88;20.98;;;;;;;5.04;nan;101072.44;5007824;28;20068;-69
2023/01/12 02:50:57;;;;;;;39.78;20.88;;;;;;;5.03;nan;101076.06;5006961;28;20108;-68
2023/01/12 02:53:29;;;;;;;43.25;20.02;;;;;;;4.92;nan;101068.59;5014619;28;20031;-67
2023/01/12 02:55:58;;;;;;;41.08;20.80;;;;;;;4.98;nan;101076.56;4997522;28;20026;-68
2023/01/12 02:58:28;;;;;;;38.70;19.33;;;;;;;4.94;nan;101071.88;5000704;28;20105;-68
2023/01/12 03:00:56;;;;;;;43.78;20.90;;;;;;;4.97;nan;101093.19;4991236;28;20448;-68
2023/01/12 03:03:23;;;;;;;43.20;21.27;;;;;;;4.97;nan;101093.19;4998814;28;20081;-69
2023/01/12 03:05:50;;;;;;;42.75;21.48;;;;;;;4.93;nan;101083.28;5003675;28;20029;-67
2023/01/12 03:08:22;;;;;;;45.05;21.50;;;;;;;4.80;nan;101061.16;5006289;28;20053;-69
2023/01/12 03:11:13;;;;;;;43.40;22.60;;;;;;;4.94;nan;101087.53;5019511;28;20480;-68
2023/01/12 03:13:50;;;;;;;45.08;20.60;;;;;;;4.87;nan;101082.97;5006803;28;20021;-68
2023/01/12 03:16:22;;;;;;;49.15;21.98;;;;;;;4.90;nan;101093.06;4988190;28;20408;-68
2023/01/12 03:18:59;;;;;;;41.75;20.35;;;;;;;4.91;nan;101088.69;4999275;28;20018;-68
2023/01/12 03:21:31;;;;;;;47.03;22.15;;;;;;;4.95;nan;101089.94;5003212;28;20546;-68
2023/01/12 03:24:08;;;;;;;42.05;21.35;;;;;;;4.96;nan;101101.22;4987124;28;20061;-67
2023/01/12 03:26:37;;;;;;;42.58;21.40;;;;;;;4.96;nan;101099.41;5006754;28;20076;-69
2023/01/12 03:29:32;;;;;;;43.77;21.63;;;;;;;4.95;nan;101095.16;4997576;28;20076;-68
2023/01/12 03:31:58;;;;;;;45.95;22.23;;;;;;;4.96;nan;101090.78;4995662;28;20053;-68
2023/01/12 03:34:25;;;;;;;45.42;21.50;;;;;;;4.79;nan;101075.19;4989315;28;20029;-69
2023/01/12 03:37:02;;;;;;;44.47;22.52;;;;;;;4.84;nan;101085.94;5004660;28;20029;-69
2023/01/12 03:39:59;;;;;;;48.60;22.77;;;;;;;4.92;nan;101094.72;4992180;28;20075;-68
2023/01/12 03:42:31;;;;;;;47.10;22.10;;;;;;;4.93;nan;101096.31;4996106;28;20046;-68
2023/01/12 03:45:03;;;;;;;47.83;23.58;;;;;;;4.95;nan;101089.13;5006403;28;20552;-67
2023/01/12 03:47:32;;;;;;;47.60;23.25;;;;;;;4.90;nan;101072.19;5001850;28;20500;-68
2023/01/12 03:50:22;;;;;;;48.13;23.10;;;;;;;4.61;nan;101035.47;5002872;28;20025;-69
2023/01/12 03:52:50;;;;;;;51.13;23.20;;;;;;;4.80;nan;101065.56;4997022;28;20060;-68
2023/01/12 03:55:21;;;;;;;55.28;24.30;;;;;;;4.93;nan;101096.31;4991194;28;20543;-68
2023/01/12 03:57:48;;;;;;;55.50;25.45;;;;;;;4.94;nan;101093.56;5006961;28;20029;-69
2023/01/12 04:00:16;;;;;;;53.60;26.50;;;;;;;4.90;nan;101087.84;4987445;28;20608;-68
2023/01/12 04:02:42;;;;;;;48.72;24.65;;;;;;;4.97;nan;101082.75;5006859;28;20057;-68
2023/01/12 04:05:09;;;;;;;53.70;25.70;;;;;;;4.99;nan;101080.78;5006286;28;20565;-69
2023/01/12 04:07:34;;;;;;;52.92;25.23;;;;;;;4.68;nan;101039.03;4986416;28;20064;-68
2023/01/12 04:09:59;;;;;;;53.42;25.85;;;;;;;4.92;nan;101063.38;5002633;28;20749;-69
2023/01/12 04:12:25;;;;;;;51.17;24.27;;;;;;;4.95;nan;101069.06;4999270;28;20604;-69
2023/01/12 04:14:50;;;;;;;55.67;25.50;;;;;;;4.84;nan;101049.41;5005099;28;20535;-68
2023/01/12 04:17:16;;;;;;;51.45;25.30;;;;;;;4.89;nan;101056.72;4988547;28;20048;-68
2023/01/12 04:19:41;;;;;;;44.92;23.42;;;;;;;4.84;nan;101052.00;4982438;28;20034;-68
2023/01/12 04:24:53;;;;;;;44.80;23.65;;;;;;;4.78;nan;101050.06;5003206;28;20095;-69
2023/01/12 04:27:18;;;;;;;48.35;23.80;;;;;;;4.85;nan;101061.44;4984641;28;20042;-66
2023/01/12 04:29:44;;;;;;;53.28;25.38;;;;;;;4.93;nan;101076.25;5003458;28;20037;-68
2023/01/12 04:32:10;;;;;;;50.88;23.67;;;;;;;4.78;nan;101052.69;4987677;28;20385;-68
2023/01/12 04:34:35;;;;;;;49.75;24.55;;;;;;;4.95;nan;101084.72;5003533;28;20466;-68
2023/01/12 04:37:01;;;;;;;48.85;23.55;;;;;;;4.94;nan;101088.31;5001943;28;20018;-68
2023/01/12 04:39:28;;;;;;;46.78;24.40;;;;;;;4.96;nan;101085.56;5006259;28;20034;-68
2023/01/12 04:41:53;;;;;;;48.55;23.90;;;;;;;4.87;nan;101077.75;4987384;28;20457;-68
2023/01/12 04:44:19;;;;;;;49.10;23.58;;;;;;;4.96;nan;101088.16;5003372;28;20033;-68
2023/01/12 04:46:44;;;;;;;45.63;23.13;;;;;;;4.93;nan;101085.88;4989459;28;20468;-68
2023/01/12 04:49:10;;;;;;;47.08;23.38;;;;;;;4.92;nan;101086.88;5003721;28;20037;-67
2023/01/12 04:51:35;;;;;;;47.95;22.88;;;;;;;4.98;nan;101099.22;4999621;28;20026;-67
2023/01/12 04:54:00;;;;;;;42.85;22.77;;;;;;;4.98;nan;101099.22;4990823;28;20117;-68
2023/01/12 04:56:26;;;;;;;51.45;25.00;;;;;;;4.94;nan;101095.34;5000166;28;20022;-68
2023/01/12 04:58:58;;;;;;;54.25;26.95;;;;;;;4.76;nan;101070.28;5003828;28;20053;-68
2023/01/12 05:01:24;;;;;;;58.72;28.83;;;;;;;4.90;nan;101093.06;4987672;28;20963;-68
2023/01/12 05:03:49;;;;;;;67.55;29.92;;;;;;;4.56;nan;101033.38;5001238;28;20053;-68
2023/01/12 05:06:14;;;;;;;75.65;36.45;;;;;;;4.95;nan;101089.13;5003433;28;20042;-67
2023/01/12 05:11:27;;;;;;;51.33;24.83;;;;;;;4.85;nan;101082.31;5002361;28;20105;-68
2023/01/12 05:13:53;;;;;;;49.38;24.23;;;;;;;4.88;nan;101094.22;5002678;28;20146;-68
2023/01/12 05:16:18;;;;;;;49.80;24.13;;;;;;;4.83;nan;101089.50;5001160;28;20113;-69
2023/01/12 05:18:44;;;;;;;47.10;23.50;;;;;;;4.83;nan;101092.13;5002895;28;20037;-68
2023/01/12 05:21:11;;;;;;;52.63;23.98;;;;;;;4.75;nan;101086.94;4979424;28;20377;-68
2023/01/12 05:23:37;;;;;;;47.35;22.92;;;;;;;4.71;nan;101077.81;4982567;28;20022;-67
2023/01/12 05:26:04;;;;;;;48.92;23.20;;;;;;;4.80;nan;101096.88;5006630;28;20026;-68
2023/01/12 05:28:31;;;;;;;53.13;24.27;;;;;;;4.76;nan;101087.75;5000652;28;20554;-69
2023/01/12 05:31:05;;;;;;;49.97;23.67;;;;;;;4.77;nan;101092.00;5002174;28;20476;-67
2023/01/12 05:33:31;;;;;;;49.70;23.33;;;;;;;4.68;nan;101088.59;5007169;28;20160;-68
2023/01/12 05:35:57;;;;;;;49.42;26.67;;;;;;;4.69;nan;101093.66;5002083;28;20101;-68
2023/01/12 05:38:22;;;;;;;64.68;33.08;;;;;;;4.59;nan;101079.97;5002789;28;20113;-68
2023/01/12 05:40:48;;;;;;;75.68;39.45;;;;;;;4.63;nan;101094.31;5001146;28;20030;-68
2023/01/12 05:46:02;;;;;;;46.20;23.88;;;;;;;4.57;nan;101094.19;5004450;28;20041;-68
2023/01/12 05:48:28;;;;;;;43.92;21.90;;;;;;;4.56;nan;101106.41;5003208;28;20041;-68
2023/01/12 05:50:54;;;;;;;46.25;21.88;;;;;;;4.41;nan;101085.44;5004405;28;20101;-68
2023/01/12 05:53:19;;;;;;;44.58;21.10;;;;;;;4.47;nan;101091.75;5002889;28;20114;-68
2023/01/12 05:55:44;;;;;;;40.63;20.70;;;;;;;4.50;nan;101106.25;5006317;28;20053;-67
2023/01/12 05:58:10;;;;;;;44.75;22.42;;;;;;;4.41;nan;101095.88;4984933;28;20042;-68
2023/01/12 06:00:35;;;;;;;43.10;22.17;;;;;;;4.41;nan;101105.50;4987976;28;20034;-68
2023/01/12 06:03:01;;;;;;;42.88;23.58;;;;;;;4.41;nan;101110.69;5005521;28;20034;-68
2023/01/12 06:05:27;;;;;;;40.25;20.75;;;;;;;4.42;nan;101114.94;5001129;28;20041;-67
2023/01/12 06:07:52;;;;;;;41.47;21.63;;;;;;;4.42;nan;101123.56;5009157;28;20488;-68
2023/01/12 06:10:18;;;;;;;50.03;23.65;;;;;;;4.31;nan;101105.66;5002687;28;20423;-69
2023/01/12 06:15:27;;;;;;;59.08;29.30;;;;;;;4.39;nan;101128.31;5007469;28;20129;-68
2023/01/12 06:17:52;;;;;;;57.70;30.02;;;;;;;4.33;nan;101121.94;4980258;28;20546;-68
2023/01/12 06:20:18;;;;;;;54.67;28.23;;;;;;;4.30;nan;101116.25;5005571;28;20034;-67
2023/01/12 06:22:44;;;;;;;54.40;27.70;;;;;;;4.24;nan;101112.53;5009150;28;20426;-67
2023/01/12 06:25:10;;;;;;;63.42;29.02;;;;;;;4.28;nan;101116.41;5009128;28;20034;-67
2023/01/12 06:27:37;;;;;;;57.85;28.92;;;;;;;4.20;nan;101116.44;5009405;28;20420;-67
2023/01/12 06:30:04;;;;;;;56.80;27.98;;;;;;;4.18;nan;101116.59;5008164;28;20034;-68
2023/01/12 06:32:30;;;;;;;58.95;28.77;;;;;;;4.17;nan;101112.38;5011125;28;20033;-68
2023/01/12 06:34:57;;;;;;;63.75;27.65;;;;;;;4.22;nan;101130.94;5010277;28;20037;-68
2023/01/12 06:37:23;;;;;;;60.13;28.13;;;;;;;4.18;nan;101134.03;5006758;28;20022;-68
2023/01/12 06:39:48;;;;;;;56.55;27.23;;;;;;;4.11;nan;101133.88;5003254;28;20029;-68
2023/01/12 06:42:28;;;;;;;56.33;26.60;;;;;;;;;;5006054;28;20034;-72
2023/01/12 06:44:55;;;;;;;52.15;25.77;;;;;;;3.96;nan;101136.31;4989267;28;20072;-72
2023/01/12 06:47:21;;;;;;;54.70;26.17;;;;;;;3.94;nan;101140.06;5008344;28;20547;-73
2023/01/12 06:49:46;;;;;;;51.83;26.52;;;;;;;4.00;nan;101162.88;4991059;28;20120;-68
2023/01/12 06:52:11;;;;;;;56.95;26.98;;;;;;;3.84;nan;101161.06;5001144;28;20113;-68
2023/01/12 06:54:37;;;;;;;51.58;26.23;;;;;;;3.91;nan;101167.25;5003332;28;20140;-68
2023/01/12 06:57:02;;;;;;;52.78;26.33;;;;;;;3.79;nan;101153.75;5007779;28;20419;-68
2023/01/12 06:59:27;;;;;;;58.17;26.00;;;;;;;3.91;nan;101176.88;4986937;28;20069;-68
2023/01/12 07:01:53;;;;;;;58.90;27.35;;;;;;;3.89;nan;101168.41;5009399;28;20395;-69
2023/01/12 07:04:18;;;;;;;51.22;26.45;;;;;;;3.97;nan;101177.03;5005924;28;20021;-72
2023/01/12 07:06:44;;;;;;;56.90;26.55;;;;;;;4.02;nan;101184.34;5005070;28;20096;-72
2023/01/12 07:09:09;;;;;;;53.60;26.30;;;;;;;3.97;nan;101181.44;4985057;28;20037;-69
2023/01/12 07:11:35;;;;;;;57.72;26.42;;;;;;;3.98;nan;101180.47;4984101;28;20025;-70
2023/01/12 07:14:00;;;;;;;49.28;25.73;;;;;;;4.04;nan;101196.25;5007953;28;20025;-65
2023/01/12 07:16:25;;;;;;;54.00;25.95;;;;;;;3.97;nan;101190.06;4985353;28;20057;-67
2023/01/12 07:18:51;;;;;;;56.95;27.48;;;;;;;4.05;nan;101200.50;5006470;28;20022;-66
2023/01/12 07:21:18;;;;;;;53.40;27.08;;;;;;;4.04;nan;101206.66;5005900;28;20034;-67
2023/01/12 07:23:44;;;;;;;58.35;28.40;;;;;;;4.00;nan;101204.56;4999904;28;20475;-66
2023/01/12 07:26:10;;;;;;;57.63;28.15;;;;;;;3.83;nan;101188.09;5004249;28;20026;-66
2023/01/12 07:28:36;;;;;;;52.85;26.38;;;;;;;3.90;nan;101209.91;5002444;28;20463;-71
2023/01/12 07:31:04;;;;;;;47.65;26.10;;;;;;;3.92;nan;101205.34;4999645;28;20065;-67
2023/01/12 07:33:29;;;;;;;54.72;26.00;;;;;;;3.92;nan;101199.34;5003377;28;20049;-66
2023/01/12 07:35:58;;;;;;;58.50;27.63;;;;;;;3.98;nan;101204.72;4995843;28;20062;-66
2023/01/12 07:38:24;;;;;;;54.67;27.83;;;;;;;3.93;nan;101188.78;5001443;28;20042;-65
2023/01/12 07:40:50;;;;;;;56.03;28.33;;;;;;;4.10;nan;101204.41;5006025;28;20540;-65
2023/01/12 07:43:17;;;;;;;58.70;28.35;;;;;;;4.08;nan;101196.75;4985773;28;20118;-65
2023/01/12 07:45:46;;;;;;;61.05;28.85;;;;;;;4.16;nan;101201.16;5009022;28;20038;-70
2023/01/12 07:48:12;;;;;;;66.47;30.52;;;;;;;4.12;nan;101203.28;5004858;28;20064;-66
2023/01/12 07:50:38;;;;;;;61.00;30.10;;;;;;;4.15;nan;101204.75;4982025;28;20076;-67
2023/01/12 07:53:03;;;;;;;60.13;28.80;;;;;;;4.27;nan;101221.69;4983513;28;20484;-68
2023/01/12 07:55:30;;;;;;;57.35;28.23;;;;;;;4.29;nan;101221.53;5005683;28;20593;-65
2023/01/12 07:58:06;;;;;;;57.08;27.85;;;;;;;4.28;nan;101219.88;5006618;28;20037;-68
2023/01/12 08:00:32;;;;;;;64.63;31.38;;;;;;;4.33;nan;101228.84;5005076;28;20400;-68
2023/01/12 08:03:09;;;;;;;62.53;30.33;;;;;;;4.40;nan;101221.19;5000698;28;20120;-64
2023/01/12 08:05:35;;;;;;;63.70;30.05;;;;;;;4.43;nan;101219.06;5003124;28;20030;-69
2023/01/12 08:08:01;;;;;;;64.28;32.25;;;;;;;4.47;nan;101225.56;5001196;28;20046;-69
2023/01/12 08:10:27;;;;;;;185.65;83.45;;;;;;;4.41;nan;101218.41;5005105;28;20105;-72
2023/01/12 08:12:53;;;;;;;144.70;66.00;;;;;;;4.36;nan;101209.47;5005319;28;20537;-69
2023/01/12 08:15:19;;;;;;;92.97;43.67;;;;;;;4.55;nan;101223.94;5003745;28;20034;-68
2023/01/12 08:17:51;;;;;;;88.93;39.53;;;;;;;4.50;nan;101211.38;5001197;28;20487;-68
2023/01/12 08:20:21;;;;;;;69.13;33.88;;;;;;;4.60;nan;101225.09;5001848;28;22019;-69
2023/01/12 08:22:50;;;;;;;62.88;32.03;;;;;;;4.53;nan;101210.28;5004661;28;20025;-68
2023/01/12 08:25:25;;;;;;;53.88;29.90;;;;;;;4.64;nan;101226.38;5004061;28;20092;-66
2023/01/12 08:27:53;;;;;;;56.33;29.58;;;;;;;4.60;nan;101216.47;5007546;28;20084;-73
2023/01/12 08:30:21;;;;;;;62.28;28.90;;;;;;;4.54;nan;101207.47;4998808;28;20049;-66
2023/01/12 08:32:46;;;;;;;61.95;30.20;;;;;;;4.67;nan;101217.44;5004541;28;20030;-66
2023/01/12 08:35:15;;;;;;;61.25;30.38;;;;;;;4.71;nan;101229.13;4987769;28;20119;-66
2023/01/12 08:37:41;;;;;;;67.63;31.60;;;;;;;4.71;nan;101228.31;5004137;28;20033;-64
2023/01/12 08:40:07;;;;;;;61.65;29.05;;;;;;;4.69;nan;101221.50;4997776;28;20390;-67
2023/01/12 08:42:32;;;;;;;65.05;30.45;;;;;;;4.59;nan;101205.19;5004381;28;20030;-68
2023/01/12 08:44:58;;;;;;;56.88;28.13;;;;;;;4.69;nan;101212.81;5001936;28;20025;-67
2023/01/12 08:47:29;;;;;;;57.65;28.92;;;;;;;4.66;nan;101206.16;5003638;28;20054;-67
2023/01/12 08:49:55;;;;;;;59.30;29.52;;;;;;;4.73;nan;101208.91;4977027;28;20030;-67
2023/01/12 08:52:21;;;;;;;1999.90;970.15;;;;;;;4.85;nan;101202.34;4998833;28;20034;-69
2023/01/12 08:54:48;;;;;;;122.80;58.45;;;;;;;5.25;nan;101195.38;5000213;28;20030;-67
2023/01/12 08:57:15;;;;;;;113.55;48.08;;;;;;;5.33;nan;101202.34;5008080;28;20124;-68
2023/01/12 08:59:40;;;;;;;92.43;42.90;;;;;;;5.16;nan;101188.56;4983100;28;20030;-68
2023/01/12 09:02:05;;;;;;;81.05;36.97;;;;;;;5.21;nan;101204.53;5003606;28;20036;-67
2023/01/12 09:04:31;;;;;;;69.55;35.25;;;;;;;5.08;nan;101193.81;5004461;28;20661;-66
2023/01/12 09:06:56;;;;;;;63.80;33.45;;;;;;;5.01;nan;101185.84;5006765;28;20427;-67
2023/01/12 09:09:22;;;;;;;62.78;30.30;;;;;;;4.98;nan;101183.59;5007470;28;20091;-65
2023/01/12 09:11:48;;;;;;;63.53;30.40;;;;;;;5.06;nan;101203.63;5005035;28;20030;-66
2023/01/12 09:14:14;;;;;;;63.40;31.35;;;;;;;5.11;nan;101201.31;5011569;28;20076;-66
2023/01/12 09:16:40;;;;;;;55.53;28.42;;;;;;;5.00;nan;101180.78;5009475;28;20029;-64
2023/01/12 09:19:06;;;;;;;56.58;28.10;;;;;;;4.99;nan;101181.78;5010723;28;20030;-65
2023/01/12 09:21:36;;;;;;;60.45;28.95;;;;;;;4.98;nan;101173.16;5004177;28;20037;-64
2023/01/12 09:24:02;;;;;;;61.95;28.55;;;;;;;5.08;nan;101186.00;5009425;28;20037;-66
2023/01/12 09:26:30;;;;;;;57.40;27.15;;;;;;;5.06;nan;101177.50;4997428;28;20026;-64
2023/01/12 09:29:00;;;;;;;51.42;27.75;;;;;;;5.18;nan;101180.56;5003518;28;20026;-67
2023/01/12 09:31:28;;;;;;;53.80;27.80;;;;;;;5.20;nan;101178.59;4989933;28;20041;-64
2023/01/12 09:33:54;;;;;;;52.70;26.88;;;;;;;5.21;nan;101185.44;5002369;28;20176;-68
2023/01/12 09:36:24;;;;;;;54.80;28.17;;;;;;;5.19;nan;101175.16;5007605;28;20054;-66
2023/01/12 09:38:49;;;;;;;53.75;28.02;;;;;;;5.13;nan;101162.81;5013672;28;20089;-67
2023/01/12 09:46:57;;;;;;;48.15;25.48;;;;;;;5.27;nan;101171.72;5016057;28;20575;-65
2023/01/12 09:47:22;;;;;;;52.60;26.17;;;;;;;5.29;nan;101160.13;5009069;28;20045;-65
2023/01/12 09:49:56;;;;;;;50.35;26.48;;;;;;;5.36;nan;101155.00;4967504;28;20049;-66
2023/01/12 09:52:30;;;;;;;48.22;26.13;;;;;;;5.40;nan;101168.53;5005802;28;20029;-66
2023/01/12 09:54:55;;;;;;;47.47;25.42;;;;;;;5.26;nan;101155.22;5007772;28;20038;-66
2023/01/12 09:57:39;;;;;;;52.63;24.92;;;;;;;5.43;nan;101187.28;5020046;28;20033;-65
2023/01/12 10:00:12;;;;;;;48.53;25.52;;;;;;;5.41;nan;101181.44;5015500;28;20479;-67
2023/01/12 10:02:44;;;;;;;52.03;25.17;;;;;;;5.32;nan;101156.34;5008927;28;20117;-65
2023/01/12 10:05:23;;;;;;;45.40;24.08;;;;;;;5.37;nan;101167.09;5006466;28;20030;-66
2023/01/12 10:07:50;;;;;;;49.38;24.85;;;;;;;5.44;nan;101180.28;5005887;28;20054;-66
2023/01/12 10:10:15;;;;;;;46.17;24.23;;;;;;;5.48;nan;101168.47;5003382;28;20073;-67
2023/01/12 10:12:48;;;;;;;50.05;25.27;;;;;;;5.34;nan;101136.09;5006431;28;20064;-68
2023/01/12 10:15:41;;;;;;;52.75;25.15;;;;;;;5.15;nan;101116.44;4991825;28;20030;-66
2023/01/12 10:18:47;;;;;;;53.33;27.70;;;;;;;5.53;nan;101166.16;5009878;28;20026;-67
2023/01/12 10:21:13;;;;;;;55.90;29.02;;;;;;;5.56;nan;101165.84;5006440;28;20034;-66
2023/01/12 10:23:39;;;;;;;64.82;30.27;;;;;;;5.44;nan;101135.88;5004227;28;20022;-66
2023/01/12 10:26:24;;;;;;;57.75;27.98;;;;;;;5.61;nan;101155.69;5008044;28;20030;-67
2023/01/12 10:28:53;;;;;;;53.22;26.27;;;;;;;5.53;nan;101145.25;5005775;28;20045;-66
2023/01/12 10:31:22;;;;;;;47.97;25.05;;;;;;;5.65;nan;101156.13;5001124;28;20058;-66
2023/01/12 10:34:01;;;;;;;52.30;25.77;;;;;;;5.67;nan;101157.59;5000271;28;20049;-66
2023/01/12 10:36:28;;;;;;;44.30;23.23;;;;;;;5.70;nan;101148.59;4980886;28;20351;-65
2023/01/12 10:38:56;;;;;;;46.25;23.27;;;;;;;5.72;nan;101144.84;4986196;28;20032;-66
2023/01/12 10:41:26;;;;;;;47.15;23.27;;;;;;;5.75;nan;101144.47;5001223;28;20496;-65
2023/01/12 10:43:57;;;;;;;45.03;23.23;;;;;;;5.78;nan;101140.69;5005880;28;20034;-66
2023/01/12 10:46:28;;;;;;;52.08;25.58;;;;;;;5.75;nan;101128.00;4998438;28;20408;-65
2023/01/12 10:49:13;;;;;;;51.53;24.80;;;;;;;5.85;nan;101135.59;5007755;28;20060;-65
2023/01/12 10:51:50;;;;;;;47.47;24.30;;;;;;;5.75;nan;101117.53;5004394;28;20092;-65
2023/01/12 10:54:19;;;;;;;47.45;23.20;;;;;;;5.65;nan;101086.41;5011236;28;20021;-65
2023/01/12 10:56:56;;;;;;;;;;;;;;;5.98;nan;101127.97;5009062;28;20060;-65
2023/01/12 10:59:28;;;;;;;40.15;20.70;;;;;;;5.91;nan;101095.66;5008445;28;19928;-66
2023/01/12 11:02:02;;;;;;;48.60;23.67;;;;;;;;;;5003365;28;20026;-65
2023/01/12 11:04:28;;;;;;;42.63;21.10;;;;;;;;;;5004277;28;20133;-67
2023/01/12 11:07:00;;;;;;;47.67;22.30;;;;;;;;;;5005938;28;20527;-65
2023/01/12 11:09:27;;;;;;;36.25;17.90;;;;;;;;;;5002749;28;20042;-68
2023/01/12 11:11:56;;;;;;;36.88;19.02;;;;;;;;;;5011066;28;20055;-64
2023/01/12 11:14:48;;;;;;;33.85;18.88;;;;;;;;;;5005028;28;20559;-65
2023/01/12 11:17:22;;;;;;;35.15;18.15;;;;;;;6.43;nan;101101.91;4998371;28;20038;-66
2023/01/12 11:19:50;;;;;;;37.35;18.30;;;;;;;6.46;nan;101106.78;5003875;28;20504;-66
2023/01/12 11:22:32;;;;;;;31.92;16.63;;;;;;;6.48;nan;101095.13;4980378;28;20040;-66
2023/01/12 11:25:08;;;;;;;31.15;16.85;;;;;;;6.56;nan;101107.31;5001701;28;20084;-66
2023/01/12 11:27:52;;;;;;;36.00;18.63;;;;;;;6.37;nan;101072.06;4998939;28;20027;-66
2023/01/12 11:30:29;;;;;;;32.25;16.65;;;;;;;6.64;nan;101109.03;4997656;28;20081;-66
2023/01/12 11:33:07;;;;;;;30.38;16.20;;;;;;;6.66;nan;101104.44;5000766;28;20032;-65
2023/01/12 11:35:59;;;;;;;28.92;15.60;;;;;;;6.69;nan;101112.72;4997996;28;20025;-64
2023/01/12 11:38:33;;;;;;;27.35;14.45;;;;;;;6.74;nan;101110.38;4966162;28;20066;-67
2023/01/12 11:40:59;;;;;;;27.95;14.07;;;;;;;6.71;nan;101105.50;4980429;28;20435;-66
2023/01/12 11:46:20;;;;;;;28.80;15.13;;;;;;;6.80;nan;101111.47;4997079;28;20042;-66
2023/01/12 11:49:08;;;;;;;27.27;15.32;;;;;;;6.80;nan;101107.03;4999585;28;20034;-66
2023/01/12 11:51:34;;;;;;;28.40;14.57;;;;;;;6.71;nan;101096.84;5000205;28;20018;-66
2023/01/12 11:53:59;;;;;;;27.75;14.68;;;;;;;6.79;nan;101102.78;5000319;28;20091;-67
2023/01/12 11:57:02;;;;;;;26.77;13.70;;;;;;;6.85;nan;101114.34;4999659;28;20472;-67
2023/01/12 11:59:49;;;;;;;27.13;14.30;;;;;;;6.85;nan;101116.97;4984900;28;20076;-67
2023/01/12 12:02:33;;;;;;;39.10;18.58;;;;;;;6.88;nan;101113.97;4999926;28;20060;-66
2023/01/12 12:05:32;;;;;;;34.67;18.70;;;;;;;6.92;nan;101117.84;4999627;28;20026;-66
2023/01/12 12:08:18;;;;;;;41.33;19.90;;;;;;;6.95;nan;101114.06;4994598;28;20054;-66
2023/01/12 12:10:55;;;;;;;36.85;19.42;;;;;;;6.98;nan;101113.69;4991599;28;20025;-67
2023/01/12 12:13:32;;;;;;;34.83;18.02;;;;;;;7.01;nan;101113.31;5002177;28;20052;-66
2023/01/12 12:16:25;;;;;;;38.95;20.33;;;;;;;7.03;nan;101112.13;5002479;28;20026;-67